PWSweather.com
Personal Weather Stations
Station Observations
KWIPARKF
Flambeau River State Forest, Park Falls, WI 54552

Flambeau River State ForestPark Falls, WI 54552

Lat: 45.81943, Lon: -90.61676

Elevation: 1476

Station Type: Davis Vantage Pro2 Plus

Latest ConditionsUpdated 3:40:01 AM CDT Friday, Aug 18, 2017
Currently Today's Max Today's Min Today's Average
Temperature 60.2°F15.7°C 60.8°F16.0°C 60.2°F15.7°C 60.5°F15.8°C
Dew Point 59.6°F15.3°C 60.2°F15.7°C 59.6°F15.3°C 59.9°F15.5°C
Winds 3.5 mph W5.6 kmh W 3.5 mph W5.6 kmh W - 1.2 mph 1.9 kmh
Wind Gusts 5.8 mph9.3 kmh 9.2 mph14.8 kmh - -
Humidity 98% 98% 98% 98%
Pressure 29.75 in1007.5 mb 29.75 in1007.5 mb 29.73 in1006.8 mb -
Hour Temp Dew Point Humidity Winds Wind Gusts Pressure Precip Precip Rate Daily Precip Total
03:40 AM 60.2°F15.7°C 59.6°F15.3°C 98% 3.5 mph W5.6 kmh W 5.8 mph9.3 kmh 29.75 in1007.5 mb - 0.00 in0.0 mm 0.01 in0.3 mm
03:30 AM 60.2°F15.7°C 59.6°F15.3°C 98% 1.2 mph WNW1.9 kmh WNW 8.1 mph13.0 kmh 29.74 in1007.1 mb - 0.00 in0.0 mm 0.01 in0.3 mm
03:20 AM 60.3°F15.7°C 59.7°F15.4°C 98% 2.3 mph WNW3.7 kmh WNW 4.6 mph7.4 kmh 29.74 in1007.1 mb - 0.00 in0.0 mm 0.01 in0.3 mm
03:10 AM 60.2°F15.7°C 59.6°F15.3°C 98% 2.3 mph NNW3.7 kmh NNW 6.9 mph11.1 kmh 29.74 in1007.1 mb - 0.00 in0.0 mm 0.01 in0.3 mm
03:00 AM 60.2°F15.7°C 59.6°F15.3°C 98% Calm Calm 1.2 mph1.9 kmh 29.74 in1007.1 mb - 0.00 in0.0 mm 0.01 in0.3 mm
02:50 AM 60.2°F15.7°C 59.6°F15.3°C 98% 1.2 mph W1.9 kmh W 6.9 mph11.1 kmh 29.74 in1007.1 mb - 0.00 in0.0 mm 0.01 in0.3 mm
02:40 AM 60.3°F15.7°C 59.7°F15.4°C 98% Calm Calm 3.5 mph5.6 kmh 29.74 in1007.1 mb - 0.00 in0.0 mm 0.01 in0.3 mm
02:30 AM 60.4°F15.8°C 59.8°F15.4°C 98% 2.3 mph N3.7 kmh N 5.8 mph9.3 kmh 29.74 in1007.1 mb - 0.00 in0.0 mm 0.01 in0.3 mm
02:20 AM 60.4°F15.8°C 59.8°F15.4°C 98% Calm Calm 3.5 mph5.6 kmh 29.74 in1007.1 mb - 0.00 in0.0 mm 0.01 in0.3 mm
02:10 AM 60.4°F15.8°C 59.8°F15.4°C 98% 1.2 mph WNW1.9 kmh WNW 3.5 mph5.6 kmh 29.74 in1007.1 mb - 0.00 in0.0 mm 0.01 in0.3 mm
02:00 AM 60.5°F15.8°C 59.9°F15.5°C 98% 1.2 mph NNW1.9 kmh NNW 2.3 mph3.7 kmh 29.73 in1006.8 mb - 0.00 in0.0 mm 0.01 in0.3 mm
01:50 AM 60.5°F15.8°C 59.9°F15.5°C 98% 1.2 mph NNW1.9 kmh NNW 8.1 mph13.0 kmh 29.74 in1007.1 mb - 0.00 in0.0 mm 0.01 in0.3 mm
01:40 AM 60.5°F15.8°C 59.9°F15.5°C 98% Calm Calm -- 29.74 in1007.1 mb - 0.00 in0.0 mm 0.01 in0.3 mm
01:30 AM 60.5°F15.8°C 59.9°F15.5°C 98% Calm Calm 3.5 mph5.6 kmh 29.73 in1006.8 mb - 0.00 in0.0 mm 0.01 in0.3 mm
01:20 AM 60.5°F15.8°C 59.9°F15.5°C 98% 1.2 mph NW1.9 kmh NW 5.8 mph9.3 kmh 29.74 in1007.1 mb - 0.00 in0.0 mm 0.01 in0.3 mm
01:10 AM 60.5°F15.8°C 59.9°F15.5°C 98% Calm Calm -- 29.73 in1006.8 mb - 0.00 in0.0 mm 0.01 in0.3 mm
01:00 AM 60.5°F15.8°C 60.0°F15.6°C 98% Calm Calm -- 29.73 in1006.8 mb - 0.00 in0.0 mm 0.01 in0.3 mm
12:50 AM 60.6°F15.9°C 60.0°F15.6°C 98% 2.3 mph NW3.7 kmh NW 5.8 mph9.3 kmh 29.74 in1007.1 mb - 0.00 in0.0 mm 0.01 in0.3 mm
12:40 AM 60.7°F15.9°C 60.1°F15.6°C 98% 1.2 mph NW1.9 kmh NW 5.8 mph9.3 kmh 29.73 in1006.8 mb - 0.00 in0.0 mm 0.01 in0.3 mm
12:30 AM 60.7°F15.9°C 60.1°F15.6°C 98% Calm Calm -- 29.73 in1006.8 mb - 0.00 in0.0 mm 0.01 in0.3 mm
12:20 AM 60.7°F15.9°C 60.1°F15.6°C 98% 1.2 mph NNW1.9 kmh NNW 4.6 mph7.4 kmh 29.73 in1006.8 mb - 0.00 in0.0 mm 0.01 in0.3 mm
12:10 AM 60.8°F16.0°C 60.2°F15.7°C 98% 2.3 mph NW3.7 kmh NW 9.2 mph14.8 kmh 29.73 in1006.8 mb - 0.00 in0.0 mm 0.01 in0.3 mm
12:00 AM 60.8°F16.0°C 60.2°F15.7°C 98% 2.3 mph NW3.7 kmh NW 5.8 mph9.3 kmh 29.73 in1006.8 mb - 0.01 in0.3 mm 0.01 in0.3 mm